Welcome to Northern Hawkes Bay. New Zealand.
PWS Header
      nz Flag



Hit Counter


W3C Valid W3C Valid logo


    Wairoa

Select any of the Stations below to visit their websites.










Historic Data from Weather Underground
Select the location of interest below. Wairoa is the default. Please have patience, this Data is slow to load in.
Northern Hawkes Bay Historical Data
Daily Summary for July 17, 2017 Units:  English    Metric   Both
« Previous Day
Next Day »
Daily Weekly Monthly Yearly Custom
  High: Low: Average:
Temperature: 59.5 °F 39 °F 49.3 °F
Dew Point: 45.1 °F 37.6 °F 41.4 °F
Humidity: 95% 56% 76%
Wind Speed: 14.5mph 0mph 4.5mph
Wind Gust: 22.8mph - -
Wind- - WSW
Pressure: 30.3 in 30.1 in -
Precipitation: 0 in    
Historical Graphs
 
 
Tabular Data for July 17, 2017
Time Temperature Dew Point Pressure Wind Wind Speed Wind Gust Humidity Rainfall Rate (Hourly) solar
00:03 40.6 °F 39 °F 30.3 in NNW 4.5 mph 6.9 mph 94% 0 in 0 W/m2
00:08 40.5 °F 38.8 °F 30.3 in NW 4.5 mph 6.9 mph 94% 0 in 0 W/m2
00:13 40.5 °F 38.8 °F 30.3 in NW 5.4 mph 7.6 mph 94% 0 in 0 W/m2
00:18 40.5 °F 38.8 °F 30.3 in NW 3.8 mph 8.3 mph 94% 0 in 0 W/m2
00:23 40.5 °F 38.8 °F 30.3 in NW 6 mph 8.3 mph 94% 0 in 0 W/m2
00:28 40.5 °F 38.8 °F 30.3 in NNW 5.4 mph 9.8 mph 94% 0 in 0 W/m2
00:33 40.6 °F 39 °F 30.3 in NNW 6 mph 9.8 mph 94% 0 in 0 W/m2
00:38 40.6 °F 39 °F 30.3 in NNW 5.4 mph 9.2 mph 94% 0 in 0 W/m2
00:43 40.5 °F 38.8 °F 30.3 in NNW 5.4 mph 8.3 mph 94% 0 in 0 W/m2
00:48 40.5 °F 38.8 °F 30.3 in North 5.4 mph 9.8 mph 94% 0 in 0 W/m2
00:53 40.5 °F 38.8 °F 30.3 in NNW 6.9 mph 9.8 mph 94% 0 in 0 W/m2
00:58 40.3 °F 38.7 °F 30.3 in NW 6.9 mph 10.7 mph 94% 0 in 0 W/m2
01:03 40.3 °F 38.7 °F 30.3 in NW 3.1 mph 10.7 mph 94% 0 in 0 W/m2
01:08 40.1 °F 38.5 °F 30.3 in NNW 2.2 mph 10.7 mph 94% 0 in 0 W/m2
01:13 40.1 °F 38.5 °F 30.3 in NNW 1.6 mph 6 mph 94% 0 in 0 W/m2
01:18 40.1 °F 38.5 °F 30.3 in NNW 2.2 mph 4.5 mph 94% 0 in 0 W/m2
01:23 39.9 °F 38.3 °F 30.3 in NNW 5.4 mph 6.9 mph 94% 0 in 0 W/m2
01:28 40.3 °F 38.7 °F 30.3 in NNW 3.1 mph 6.9 mph 94% 0 in 0 W/m2
01:33 40.3 °F 38.7 °F 30.3 in NNW 3.1 mph 6.9 mph 94% 0 in 0 W/m2
01:38 40.3 °F 38.7 °F 30.3 in NNW 3.1 mph 5.4 mph 94% 0 in 0 W/m2
01:43 40.1 °F 38.5 °F 30.3 in NNW 3.8 mph 6 mph 94% 0 in 0 W/m2
01:48 39.7 °F 38.1 °F 30.3 in NNW 5.4 mph 7.6 mph 94% 0 in 0 W/m2
01:53 39.7 °F 38.1 °F 30.3 in NNW 5.4 mph 9.2 mph 94% 0 in 0 W/m2
01:58 39.7 °F 38.1 °F 30.3 in NW 5.4 mph 9.2 mph 94% 0 in 0 W/m2
02:03 39.7 °F 38.1 °F 30.3 in NW 4.5 mph 9.2 mph 94% 0 in 0 W/m2
02:08 39.6 °F 37.9 °F 30.3 in NNW 4.5 mph 9.2 mph 94% 0 in 0 W/m2
02:13 39.6 °F 37.9 °F 30.3 in NNW 4.5 mph 6.9 mph 94% 0 in 0 W/m2
02:18 39.4 °F 37.8 °F 30.3 in NNW 6.9 mph 9.2 mph 94% 0 in 0 W/m2
02:23 39.7 °F 38.1 °F 30.3 in NNW 5.4 mph 9.2 mph 94% 0 in 0 W/m2
02:28 39.9 °F 38.3 °F 30.3 in NNW 4.5 mph 9.2 mph 94% 0 in 0 W/m2
02:33 39.9 °F 38.3 °F 30.3 in NNW 5.4 mph 9.2 mph 94% 0 in 0 W/m2
02:38 39.9 °F 38.3 °F 30.3 in NNW 3.1 mph 9.2 mph 94% 0 in 0 W/m2
02:43 39.9 °F 38.3 °F 30.2 in NNW 5.4 mph 9.2 mph 94% 0 in 0 W/m2
02:48 39.7 °F 38.1 °F 30.2 in NNW 5.4 mph 8.3 mph 94% 0 in 0 W/m2
02:53 39.7 °F 38.1 °F 30.2 in NNW 5.4 mph 8.3 mph 94% 0 in 0 W/m2
02:58 39.7 °F 38.1 °F 30.2 in NNW 6 mph 9.2 mph 94% 0 in 0 W/m2
03:03 39.6 °F 37.9 °F 30.2 in NNW 5.4 mph 9.2 mph 94% 0 in 0 W/m2
03:08 39.4 °F 37.8 °F 30.2 in NNW 3.8 mph 9.2 mph 94% 0 in 0 W/m2
03:13 39.2 °F 37.6 °F 30.2 in NNW 5.4 mph 8.3 mph 94% 0 in 0 W/m2
03:18 39.2 °F 37.6 °F 30.2 in NNW 5.4 mph 8.3 mph 94% 0 in 0 W/m2
03:23 39 °F 37.8 °F 30.2 in NNW 5.4 mph 8.3 mph 95% 0 in 0 W/m2
03:28 39.2 °F 37.6 °F 30.2 in NNW 5.4 mph 8.3 mph 94% 0 in 0 W/m2
03:33 39.2 °F 37.6 °F 30.2 in NNW 6 mph 10.7 mph 94% 0 in 0 W/m2
03:38 39 °F 37.8 °F 30.2 in NNW 6 mph 10.7 mph 95% 0 in 0 W/m2
03:43 39.2 °F 37.6 °F 30.2 in NNW 6.9 mph 9.8 mph 94% 0 in 0 W/m2
03:48 39.2 °F 37.6 °F 30.2 in NNW 6.9 mph 9.8 mph 94% 0 in 0 W/m2
03:53 39.2 °F 37.6 °F 30.2 in NW 4.5 mph 10.7 mph 94% 0 in 0 W/m2
03:58 39.4 °F 37.8 °F 30.2 in NNW 6 mph 10.7 mph 94% 0 in 0 W/m2
04:03 39.6 °F 37.9 °F 30.2 in NNW 6.9 mph 10.7 mph 94% 0 in 0 W/m2
04:08 39.7 °F 38.1 °F 30.2 in North 6.9 mph 10.7 mph 94% 0 in 0 W/m2
04:13 39.7 °F 38.1 °F 30.2 in NNW 6.9 mph 10.7 mph 94% 0 in 0 W/m2
04:18 39.9 °F 38.3 °F 30.2 in NNW 5.4 mph 9.8 mph 94% 0 in 0 W/m2
04:23 39.9 °F 38.3 °F 30.2 in NNW 5.4 mph 9.8 mph 94% 0 in 0 W/m2
04:28 40.1 °F 38.5 °F 30.2 in NNW 3.8 mph 9.2 mph 94% 0 in 0 W/m2
04:33 40.3 °F 38.7 °F 30.2 in NNW 4.5 mph 8.3 mph 94% 0 in 0 W/m2
04:38 40.5 °F 38.8 °F 30.2 in North 3.8 mph 8.3 mph 94% 0 in 0 W/m2
04:43 40.6 °F 38.8 °F 30.2 in NNW 6.9 mph 9.2 mph 93% 0 in 0 W/m2
04:48 40.5 °F 38.7 °F 30.2 in NNW 3.8 mph 9.2 mph 93% 0 in 0 W/m2
04:54 39.9 °F 37.8 °F 30.2 in NNW 5.4 mph 8.3 mph 92% 0 in 0 W/m2
04:59 39.7 °F 37.6 °F 30.2 in NNW 5.4 mph 8.3 mph 92% 0 in 0 W/m2
05:04 39.7 °F 37.9 °F 30.2 in NNW 3.8 mph 8.3 mph 93% 0 in 0 W/m2
05:09 39.9 °F 38.1 °F 30.2 in North 3.1 mph 8.3 mph 93% 0 in 0 W/m2
05:14 39.9 °F 38.1 °F 30.2 in NNW 3.1 mph 6.9 mph 93% 0 in 0 W/m2
05:19 39.9 °F 38.1 °F 30.2 in NNW 3.8 mph 6.9 mph 93% 0 in 0 W/m2
05:24 39.9 °F 38.1 °F 30.2 in NNW 4.5 mph 6 mph 93% 0 in 0 W/m2
05:29 39.9 °F 38.1 °F 30.2 in NW 3.8 mph 6 mph 93% 0 in 0 W/m2
05:34 40.1 °F 38.1 °F 30.2 in NW 3.8 mph 7.6 mph 93% 0 in 0 W/m2
05:39 40.1 °F 38.1 °F 30.2 in NW 3.8 mph 7.6 mph 93% 0 in 0 W/m2
05:44 39.9 °F 38.1 °F 30.2 in NNW 3.1 mph 6.9 mph 93% 0 in 0 W/m2
05:49 39.9 °F 38.1 °F 30.2 in NNW 3.8 mph 6.9 mph 93% 0 in 0 W/m2
05:59 39.7 °F 37.9 °F 30.2 in NNW 3.1 mph 6.9 mph 93% 0 in 0 W/m2
06:04 39.7 °F 37.9 °F 30.2 in NNW 3.8 mph 6.9 mph 93% 0 in 0 W/m2
06:09 39.7 °F 37.9 °F 30.2 in NNW 3.8 mph 6.9 mph 93% 0 in 0 W/m2
06:14 39.9 °F 38.3 °F 30.2 in NW 3.8 mph 9.8 mph 94% 0 in 0 W/m2
06:19 40.3 °F 38.7 °F 30.2 in NW 3.8 mph 9.8 mph 94% 0 in 0 W/m2
06:24 40.1 °F 38.5 °F 30.2 in NW 6.9 mph 9.8 mph 94% 0 in 0 W/m2
06:29 40.1 °F 38.1 °F 30.2 in NNW 5.4 mph 10.7 mph 93% 0 in 0 W/m2
06:34 39.9 °F 38.1 °F 30.2 in NNW 3.8 mph 10.7 mph 93% 0 in 0 W/m2
06:39 39.7 °F 37.9 °F 30.2 in NW 4.5 mph 8.3 mph 93% 0 in 0 W/m2
06:44 39.6 °F 37.8 °F 30.2 in NW 5.4 mph 8.3 mph 93% 0 in 0 W/m2
06:49 39.6 °F 37.8 °F 30.2 in NW 5.4 mph 7.6 mph 93% 0 in 0 W/m2
06:54 39.4 °F 37.6 °F 30.2 in NW 5.4 mph 8.3 mph 93% 0 in 0 W/m2
06:59 39.4 °F 37.8 °F 30.2 in NW 6 mph 9.2 mph 94% 0 in 0 W/m2
07:04 39.6 °F 37.9 °F 30.2 in NW 5.4 mph 9.2 mph 94% 0 in 0 W/m2
07:09 39.9 °F 38.3 °F 30.2 in NW 6 mph 8.3 mph 94% 0 in 0 W/m2
07:14 40.1 °F 38.5 °F 30.2 in NNW 6 mph 9.2 mph 94% 0 in 0 W/m2
07:19 40.1 °F 38.5 °F 30.2 in NNW 6 mph 9.2 mph 94% 0 in 0 W/m2
07:24 39.9 °F 38.1 °F 30.2 in NW 5.4 mph 9.2 mph 93% 0 in 0 W/m2
07:29 39.9 °F 38.1 °F 30.2 in NNW 3.8 mph 9.2 mph 93% 0 in 2 W/m2
07:34 40.1 °F 38.1 °F 30.2 in NNW 4.5 mph 9.2 mph 93% 0 in 5 W/m2
07:39 40.5 °F 38.7 °F 30.2 in NNW 4.5 mph 9.2 mph 93% 0 in 17 W/m2
07:44 40.8 °F 39 °F 30.2 in NNW 6 mph 9.2 mph 93% 0 in 40 W/m2
07:49 41.4 °F 39.2 °F 30.2 in NNW 4.5 mph 8.3 mph 92% 0 in 53 W/m2
07:54 41.9 °F 39.7 °F 30.2 in NNW 5.4 mph 8.3 mph 92% 0 in 59 W/m2
07:59 42.3 °F 39.7 °F 30.2 in NW 4.5 mph 7.6 mph 91% 0 in 79 W/m2
08:05 43 °F 39.9 °F 30.2 in NW 6 mph 8.3 mph 89% 0 in 87 W/m2
08:10 43.7 °F 40.1 °F 30.2 in NW 4.5 mph 8.3 mph 87% 0 in 97 W/m2
08:15 44.2 °F 40.3 °F 30.2 in NNW 6 mph 8.3 mph 86% 0 in 74 W/m2
08:20 44.4 °F 40.3 °F 30.2 in NNW 6.9 mph 9.2 mph 85% 0 in 89 W/m2
08:25 44.8 °F 40.3 °F 30.2 in NNW 6 mph 9.2 mph 84% 0 in 64 W/m2
08:30 45 °F 40.1 °F 30.2 in NW 5.4 mph 9.2 mph 83% 0 in 55 W/m2
08:35 44.4 °F 39.9 °F 30.2 in NNW 4.5 mph 9.2 mph 84% 0 in 62 W/m2
08:40 44.8 °F 40.3 °F 30.2 in NNW 4.5 mph 7.6 mph 84% 0 in 68 W/m2
08:45 45.1 °F 40.6 °F 30.2 in NNW 4.5 mph 7.6 mph 84% 0 in 61 W/m2
08:51 46.8 °F 42.4 °F 30.2 in NNW 6.9 mph 9.8 mph 85% 0 in 131 W/m2
08:56 48.6 °F 42.6 °F 30.2 in North 6 mph 10.7 mph 80% 0 in 176 W/m2
09:01 49.6 °F 42.4 °F 30.2 in NNW 6 mph 10.7 mph 76% 0 in 189 W/m2
09:06 49.6 °F 42.1 °F 30.2 in NNW 4.5 mph 9.8 mph 75% 0 in 183 W/m2
09:11 49.3 °F 41.7 °F 30.2 in NNW 3.1 mph 9.8 mph 75% 0 in 81 W/m2
09:16 48.4 °F 41.2 °F 30.2 in NNW 6 mph 9.2 mph 76% 0 in 203 W/m2
09:21 49.3 °F 42.4 °F 30.2 in NNW 5.4 mph 9.2 mph 77% 0 in 104 W/m2
09:26 50 °F 42.4 °F 30.2 in NNW 9.2 mph 11.4 mph 75% 0 in 90 W/m2
09:32 50.5 °F 42.6 °F 30.2 in North 5.4 mph 11.4 mph 74% 0 in 94 W/m2
09:37 50.5 °F 42.6 °F 30.2 in North 6 mph 9.8 mph 74% 0 in 115 W/m2
09:42 51.4 °F 43.3 °F 30.2 in NNW 7.6 mph 11.4 mph 74% 0 in 130 W/m2
09:47 53.8 °F 43.9 °F 30.2 in North 6 mph 12.1 mph 69% 0 in 135 W/m2
09:52 54.9 °F 43.7 °F 30.2 in North 6 mph 12.1 mph 66% 0 in 140 W/m2
09:57 55.2 °F 43.3 °F 30.2 in North 4.5 mph 13 mph 64% 0 in 114 W/m2
10:02 54.1 °F 42.6 °F 30.2 in North 7.6 mph 13 mph 65% 0 in 107 W/m2
10:07 53.8 °F 43.2 °F 30.2 in North 6.9 mph 10.7 mph 67% 0 in 107 W/m2
10:12 54.1 °F 43.3 °F 30.2 in North 4.5 mph 9.8 mph 67% 0 in 106 W/m2
10:17 54 °F 43.5 °F 30.2 in North 5.4 mph 9.8 mph 68% 0 in 106 W/m2
10:22 54 °F 44.1 °F 30.2 in NNW 5.4 mph 10.7 mph 69% 0 in 126 W/m2
10:27 55 °F 44.8 °F 30.2 in NNW 4.5 mph 10.7 mph 68% 0 in 125 W/m2
10:32 55.2 °F 44.4 °F 30.2 in North 5.4 mph 8.3 mph 67% 0 in 109 W/m2
10:37 54.7 °F 43.9 °F 30.2 in North 3.1 mph 8.3 mph 67% 0 in 103 W/m2
10:42 54.9 °F 43.7 °F 30.2 in North 5.4 mph 8.3 mph 66% 0 in 109 W/m2
10:47 55 °F 43.5 °F 30.2 in NNE 4.5 mph 8.3 mph 65% 0 in 115 W/m2
10:52 55.8 °F 44.2 °F 30.2 in North 3.8 mph 7.6 mph 65% 0 in 121 W/m2
10:57 56.3 °F 44.8 °F 30.2 in NNE 3.8 mph 6.9 mph 65% 0 in 120 W/m2
11:02 56.3 °F 44.8 °F 30.2 in NNE 1.6 mph 6 mph 65% 0 in 120 W/m2
11:07 56.7 °F 45 °F 30.2 in North 2.2 mph 6 mph 65% 0 in 111 W/m2
11:12 56.8 °F 44.8 °F 30.2 in North 4.5 mph 6.9 mph 64% 0 in 108 W/m2
11:17 57.4 °F 45 °F 30.2 in North 4.5 mph 7.6 mph 63% 0 in 99 W/m2
11:22 56.8 °F 45.1 °F 30.2 in North 4.5 mph 7.6 mph 65% 0 in 108 W/m2
11:27 56.8 °F 45.1 °F 30.2 in NNW 4.5 mph 7.6 mph 65% 0 in 121 W/m2
11:32 56.8 °F 45.1 °F 30.2 in NNW 2.2 mph 7.6 mph 65% 0 in 126 W/m2
11:37 57.6 °F 44.8 °F 30.2 in North 3.8 mph 7.6 mph 62% 0 in 131 W/m2
11:42 57.7 °F 43.2 °F 30.2 in NNW 5.4 mph 9.8 mph 58% 0 in 114 W/m2
11:47 57.2 °F 43 °F 30.2 in North 6.9 mph 10.7 mph 59% 0 in 110 W/m2
11:52 56.8 °F 43.2 °F 30.2 in North 5.4 mph 10.7 mph 60% 0 in 121 W/m2
11:57 57 °F 43.7 °F 30.2 in North 6.9 mph 10.7 mph 61% 0 in 135 W/m2
12:02 57.4 °F 44.1 °F 30.2 in North 5.4 mph 13 mph 61% 0 in 137 W/m2
12:07 57.6 °F 43.9 °F 30.2 in North 7.6 mph 14.5 mph 60% 0 in 138 W/m2
12:12 58.3 °F 45 °F 30.2 in NNW 9.2 mph 15.9 mph 61% 0 in 159 W/m2
12:17 58.5 °F 44.6 °F 30.2 in NNW 7.6 mph 18.3 mph 60% 0 in 149 W/m2
12:22 58.1 °F 44.2 °F 30.2 in NNW 13 mph 22.8 mph 60% 0 in 142 W/m2
12:27 58.1 °F 44.2 °F 30.2 in North 7.6 mph 22.8 mph 60% 0 in 155 W/m2
12:32 59.5 °F 44.8 °F 30.2 in North 14.5 mph 22.8 mph 58% 0 in 147 W/m2
12:37 59.2 °F 43.5 °F 30.2 in NNW 11.4 mph 19.7 mph 56% 0 in 144 W/m2
12:42 59.2 °F 44.1 °F 30.2 in NNW 7.6 mph 19.7 mph 57% 0 in 131 W/m2
12:47 58.6 °F 43.9 °F 30.2 in NNW 8.3 mph 19 mph 58% 0 in 136 W/m2
12:52 59 °F 44.2 °F 30.2 in North 10.7 mph 17.4 mph 58% 0 in 140 W/m2
12:57 59 °F 43.9 °F 30.2 in North 8.3 mph 13.6 mph 57% 0 in 145 W/m2
13:02 58.5 °F 43.7 °F 30.2 in NNW 9.2 mph 16.8 mph 58% 0 in 134 W/m2
13:07 58.1 °F 43.9 °F 30.2 in NNW 7.6 mph 16.8 mph 59% 0 in 127 W/m2
13:12 57.7 °F 43.2 °F 30.2 in NNW 8.3 mph 15.2 mph 58% 0 in 123 W/m2
13:17 57.6 °F 43.9 °F 30.2 in NNW 6 mph 15.2 mph 60% 0 in 113 W/m2
13:22 57.4 °F 43.2 °F 30.2 in NNW 6.9 mph 15.2 mph 59% 0 in 118 W/m2
13:27 57.2 °F 42.6 °F 30.1 in NNW 9.2 mph 17.4 mph 58% 0 in 114 W/m2
13:32 57 °F 42.8 °F 30.1 in NNW 6.9 mph 17.4 mph 59% 0 in 102 W/m2
13:37 57 °F 43.3 °F 30.1 in NNW 9.8 mph 16.8 mph 60% 0 in 97 W/m2
13:42 56.5 °F 42.8 °F 30.1 in North 6.9 mph 16.8 mph 60% 0 in 85 W/m2
13:47 56.5 °F 43.2 °F 30.1 in NNW 9.2 mph 16.8 mph 61% 0 in 71 W/m2
13:52 56.5 °F 43.2 °F 30.1 in NNW 9.2 mph 15.2 mph 61% 0 in 66 W/m2
13:57 56.5 °F 43.2 °F 30.1 in NNW 8.3 mph 13 mph 61% 0 in 68 W/m2
14:02 56.5 °F 43.2 °F 30.1 in NNW 3.1 mph 12.1 mph 61% 0 in 65 W/m2
14:07 56.5 °F 43.5 °F 30.1 in NNW 3.8 mph 9.8 mph 62% 0 in 55 W/m2
14:12 56.3 °F 43.9 °F 30.1 in North 3.1 mph 6 mph 63% 0 in 51 W/m2
14:17 56.1 °F 44.1 °F 30.1 in North 1.6 mph 8.3 mph 64% 0 in 47 W/m2
14:22 55.9 °F 44.4 °F 30.1 in North 3.1 mph 8.3 mph 65% 0 in 42 W/m2
14:27 55.8 °F 44.2 °F 30.1 in NNE 3.1 mph 6.9 mph 65% 0 in 40 W/m2
14:32 55.8 °F 44.2 °F 30.1 in North 2.2 mph 8.3 mph 65% 0 in 40 W/m2
14:37 55.8 °F 44.2 °F 30.1 in North 1.6 mph 8.3 mph 65% 0 in 40 W/m2
14:42 55.6 °F 44.1 °F 30.1 in North 1.6 mph 5.4 mph 65% 0 in 38 W/m2
14:47 55.6 °F 44.1 °F 30.1 in North 1.6 mph 4.5 mph 65% 0 in 37 W/m2
14:52 55.4 °F 43.9 °F 30.1 in North 3.1 mph 4.5 mph 65% 0 in 33 W/m2
14:57 55.4 °F 43.9 °F 30.1 in NNE 3.1 mph 6.9 mph 65% 0 in 29 W/m2
15:02 55.2 °F 43.3 °F 30.1 in NNE 1.6 mph 6.9 mph 64% 0 in 28 W/m2
15:07 55 °F 43.2 °F 30.1 in NE 1.6 mph 4.5 mph 64% 0 in 28 W/m2
15:12 55 °F 43.2 °F 30.1 in NNE 2.2 mph 3.8 mph 64% 0 in 29 W/m2
15:17 54.9 °F 43 °F 30.1 in North 1.6 mph 3.1 mph 64% 0 in 30 W/m2
15:22 54.9 °F 43 °F 30.1 in North 3.8 mph 4.5 mph 64% 0 in 31 W/m2
15:27 54.9 °F 43 °F 30.1 in North 3.1 mph 6 mph 64% 0 in 29 W/m2
15:32 54.7 °F 42.8 °F 30.1 in NNW 3.1 mph 6 mph 64% 0 in 29 W/m2
15:37 54.9 °F 42.4 °F 30.1 in NNW 1.6 mph 5.4 mph 63% 0 in 27 W/m2
15:42 55 °F 42.3 °F 30.1 in North 3.1 mph 6 mph 62% 0 in 25 W/m2
15:47 55 °F 42.3 °F 30.1 in North 3.1 mph 6 mph 62% 0 in 22 W/m2
15:52 55 °F 42.3 °F 30.1 in NNE 3.8 mph 6.9 mph 62% 0 in 20 W/m2
15:57 55 °F 42.3 °F 30.1 in NNE 3.1 mph 6.9 mph 62% 0 in 20 W/m2
16:02 55 °F 42.3 °F 30.1 in NNE 4.5 mph 7.6 mph 62% 0 in 19 W/m2
16:07 55 °F 42.3 °F 30.1 in North 2.2 mph 7.6 mph 62% 0 in 19 W/m2
16:12 54.9 °F 42.1 °F 30.1 in North 4.5 mph 6.9 mph 62% 0 in 21 W/m2
16:17 55 °F 42.3 °F 30.1 in North 3.1 mph 6 mph 62% 0 in 18 W/m2
16:22 55.4 °F 42.3 °F 30.1 in NNE 4.5 mph 7.6 mph 61% 0 in 20 W/m2
16:27 55.8 °F 42.1 °F 30.1 in NNE 4.5 mph 7.6 mph 60% 0 in 14 W/m2
16:32 55.8 °F 42.1 °F 30.1 in North 2.2 mph 7.6 mph 60% 0 in 10 W/m2
16:37 55.6 °F 41.9 °F 30.1 in NNE 1.6 mph 6 mph 60% 0 in 9 W/m2
16:42 55.8 °F 42.1 °F 30.1 in North 0.7 mph 6.9 mph 60% 0 in 10 W/m2
16:47 55.9 °F 42.3 °F 30.1 in NNE 1.6 mph 6.9 mph 60% 0 in 4 W/m2
16:52 55.2 °F 42.1 °F 30.1 in NE 2.2 mph 5.4 mph 61% 0 in 2 W/m2
16:57 54.7 °F 41.9 °F 30.1 in NE 3.1 mph 5.4 mph 62% 0 in 0 W/m2
17:02 54.3 °F 41.5 °F 30.1 in ENE 3.8 mph 6 mph 62% 0 in 0 W/m2
17:07 54.1 °F 41.7 °F 30.1 in ENE 3.1 mph 6 mph 63% 0 in 0 W/m2
17:12 54.1 °F 41.7 °F 30.1 in NE 4.5 mph 6.9 mph 63% 0 in 0 W/m2
17:17 54.1 °F 41.7 °F 30.1 in NNE 6 mph 9.8 mph 63% 0 in 0 W/m2
17:22 54.5 °F 41.7 °F 30.1 in North 3.1 mph 9.8 mph 62% 0 in 0 W/m2
17:27 54.7 °F 41.9 °F 30.1 in North 3.8 mph 6.9 mph 62% 0 in 0 W/m2
17:32 54.7 °F 41.5 °F 30.1 in North 6.9 mph 9.8 mph 61% 0 in 0 W/m2
17:37 54.9 °F 41.7 °F 30.1 in North 3.8 mph 9.8 mph 61% 0 in 0 W/m2
17:42 54.9 °F 41.7 °F 30.1 in North 5.4 mph 9.8 mph 61% 0 in 0 W/m2
17:47 55 °F 41.7 °F 30.1 in NNW 3.8 mph 10.7 mph 61% 0 in 0 W/m2
17:52 55 °F 41.7 °F 30.1 in North 5.4 mph 11.4 mph 61% 0 in 0 W/m2
17:57 55 °F 41.7 °F 30.1 in North 4.5 mph 11.4 mph 61% 0 in 0 W/m2
18:02 55 °F 41.7 °F 30.1 in North 4.5 mph 11.4 mph 61% 0 in 0 W/m2
18:07 55.2 °F 42.1 °F 30.1 in North 9.8 mph 15.2 mph 61% 0 in 0 W/m2
18:10 55.4 °F 41.7 °F 30.1 in North 6.9 mph 15.2 mph 60% 0 in 0 W/m2
18:15 55.2 °F 42.1 °F 30.1 in North 5.4 mph 15.2 mph 61% 0 in 0 W/m2
18:20 55.4 °F 42.3 °F 30.1 in NNW 8.3 mph 14.5 mph 61% 0 in 0 W/m2
18:25 55.4 °F 42.3 °F 30.1 in NNW 9.2 mph 14.5 mph 61% 0 in 0 W/m2
18:30 55.4 °F 42.3 °F 30.1 in NNW 6.9 mph 14.5 mph 61% 0 in 0 W/m2
18:35 55.4 °F 42.3 °F 30.1 in NNW 5.4 mph 14.5 mph 61% 0 in 0 W/m2
18:40 55 °F 42.3 °F 30.1 in NNW 9.8 mph 18.3 mph 62% 0 in 0 W/m2
18:45 55.2 °F 42.1 °F 30.1 in NNW 4.5 mph 18.3 mph 61% 0 in 0 W/m2
18:50 55 °F 41.7 °F 30.1 in North 5.4 mph 14.5 mph 61% 0 in 0 W/m2
18:55 55 °F 41.7 °F 30.1 in NNW 4.5 mph 12.1 mph 61% 0 in 0 W/m2
19:00 55 °F 41.7 °F 30.1 in NNW 6.9 mph 12.1 mph 61% 0 in 0 W/m2
19:05 55 °F 42.3 °F 30.1 in NNW 9.8 mph 15.9 mph 62% 0 in 0 W/m2
19:10 55 °F 42.3 °F 30.1 in NNW 6 mph 15.9 mph 62% 0 in 0 W/m2
19:15 54.9 °F 42.4 °F 30.1 in NNW 5.4 mph 12.1 mph 63% 0 in 0 W/m2
19:20 54.9 °F 42.4 °F 30.1 in NNW 6 mph 12.1 mph 63% 0 in 0 W/m2
19:25 54.9 °F 42.4 °F 30.1 in NNW 6 mph 12.1 mph 63% 0 in 0 W/m2
19:30 54.9 °F 42.4 °F 30.1 in NNW 5.4 mph 12.1 mph 63% 0 in 0 W/m2
19:35 54.9 °F 42.4 °F 30.1 in NNW 5.4 mph 11.4 mph 63% 0 in 0 W/m2
19:40 54.9 °F 42.4 °F 30.1 in North 9.2 mph 12.1 mph 63% 0 in 0 W/m2
19:45 54.9 °F 42.4 °F 30.1 in North 6.9 mph 12.1 mph 63% 0 in 0 W/m2
19:50 54.9 °F 42.4 °F 30.1 in North 8.3 mph 13 mph 63% 0 in 0 W/m2
19:55 54.7 °F 42.8 °F 30.1 in NNE 4.5 mph 13 mph 64% 0 in 0 W/m2
20:00 54.7 °F 43.2 °F 30.1 in North 6.9 mph 10.7 mph 65% 0 in 0 W/m2
20:05 54.9 °F 43.7 °F 30.1 in NNW 7.6 mph 13 mph 66% 0 in 0 W/m2
20:10 55.4 °F 44.2 °F 30.1 in NNW 11.4 mph 14.5 mph 66% 0 in 0 W/m2
20:15 55.6 °F 44.1 °F 30.1 in NNW 3.8 mph 14.5 mph 65% 0 in 0 W/m2
20:20 55.2 °F 43.7 °F 30.1 in North 4.5 mph 13.6 mph 65% 0 in 0 W/m2
20:25 54.9 °F 43.3 °F 30.1 in North 1.6 mph 6.9 mph 65% 0 in 0 W/m2
20:30 54.5 °F 43 °F 30.1 in NNE 1.6 mph 6 mph 65% 0 in 0 W/m2
20:36 54 °F 42.4 °F 30.1 in Calm   3.8 mph 65% 0 in 0 W/m2
20:41 53.6 °F 42.1 °F 30.1 in Calm   1.6 mph 65% 0 in 0 W/m2
20:46 53.4 °F 42.4 °F 30.1 in Calm   1.6 mph 66% 0 in 0 W/m2
20:51 53.2 °F 42.6 °F 30.1 in South 2.2 mph 3.8 mph 67% 0 in 0 W/m2
20:56 53.1 °F 42.8 °F 30.1 in Calm   4.5 mph 68% 0 in 0 W/m2
21:01 52.7 °F 42.8 °F 30.1 in Calm   4.5 mph 69% 0 in 0 W/m2
21:06 52.3 °F 42.4 °F 30.1 in ENE 0.7 mph 2.2 mph 69% 0 in 0 W/m2
21:11 52.3 °F 43 °F 30.1 in Calm   1.6 mph 70% 0 in 0 W/m2
21:16 52.3 °F 43 °F 30.1 in SSE 2.2 mph 3.1 mph 70% 0 in 0 W/m2
21:21 52.3 °F 42.4 °F 30.1 in SW 2.2 mph 3.8 mph 69% 0 in 0 W/m2
21:26 51.6 °F 43 °F 30.1 in Calm   3.8 mph 72% 0 in 0 W/m2
21:31 51.4 °F 43.2 °F 30.1 in North 0.7 mph 3.8 mph 73% 0 in 0 W/m2
21:36 51.6 °F 43.3 °F 30.1 in North 2.2 mph 3.8 mph 73% 0 in 0 W/m2
21:41 51.4 °F 43.2 °F 30.1 in North 0.7 mph 3.8 mph 73% 0 in 0 W/m2
21:46 51.6 °F 43.3 °F 30.1 in NNW 1.6 mph 3.1 mph 73% 0 in 0 W/m2
21:51 51.4 °F 43.2 °F 30.1 in Calm   3.1 mph 73% 0 in 0 W/m2
21:56 51.3 °F 43.3 °F 30.1 in WSW 1.6 mph 3.1 mph 74% 0 in 0 W/m2
22:01 51.1 °F 43.3 °F 30.1 in Calm   3.1 mph 75% 0 in 0 W/m2
22:06 50.7 °F 43.2 °F 30.1 in SSE 0.7 mph 3.1 mph 75% 0 in 0 W/m2
22:11 50.5 °F 43 °F 30.1 in East 0.7 mph 2.2 mph 75% 0 in 0 W/m2
22:16 50.4 °F 42.6 °F 30.1 in Calm   2.2 mph 75% 0 in 0 W/m2
22:21 50 °F 42.4 °F 30.1 in North 0.7 mph 1.6 mph 75% 0 in 0 W/m2
22:26 49.6 °F 42.6 °F 30.1 in SW 1.6 mph 3.1 mph 77% 0 in 0 W/m2
22:31 50.2 °F 43.3 °F 30.1 in SW 0.7 mph 3.1 mph 77% 0 in 0 W/m2
22:36 50 °F 43.2 °F 30.1 in Calm   2.2 mph 77% 0 in 0 W/m2
22:41 49.6 °F 43.2 °F 30.1 in NW 0.7 mph 2.2 mph 78% 0 in 0 W/m2
22:46 49.1 °F 43.2 °F 30.1 in North 0.7 mph 3.1 mph 80% 0 in 0 W/m2
22:51 48.9 °F 43 °F 30.1 in Calm   3.1 mph 80% 0 in 0 W/m2
22:56 48.9 °F 43.3 °F 30.1 in Calm   2.2 mph 81% 0 in 0 W/m2
23:01 48.7 °F 43.2 °F 30.1 in Calm   3.1 mph 81% 0 in 0 W/m2
23:06 48.6 °F 43.5 °F 30.1 in West 0.7 mph 3.1 mph 83% 0 in 0 W/m2
23:11 48.9 °F 44.2 °F 30.1 in SSW 3.1 mph 6 mph 84% 0 in 0 W/m2
23:15 49.6 °F 45 °F 30.1 in WSW 4.5 mph 10.7 mph 84% 0 in 0 W/m2
23:18 50 °F 44.8 °F 30.1 in WSW 5.4 mph 10.7 mph 82% 0 in 0 W/m2
23:23 51.3 °F 45 °F 30.1 in SW 3.8 mph 10.7 mph 79% 0 in 0 W/m2
23:28 51.3 °F 44.6 °F 30.1 in WSW 4.5 mph 8.3 mph 78% 0 in 0 W/m2
23:33 51.3 °F 44.6 °F 30.1 in North 1.6 mph 6 mph 78% 0 in 0 W/m2
23:38 51.1 °F 44.1 °F 30.1 in North 2.2 mph 5.4 mph 77% 0 in 0 W/m2
23:43 50.7 °F 44.1 °F 30.1 in Calm   4.5 mph 78% 0 in 0 W/m2
23:48 50.4 °F 43.9 °F 30.1 in WNW 0.7 mph 3.1 mph 78% 0 in 0 W/m2
23:53 50.4 °F 44.1 °F 30.1 in NNE 0.7 mph 3.1 mph 79% 0 in 0 W/m2
23:58 50.5 °F 44.6 °F 30.1 in Calm   6.9 mph 80% 0 in 0 W/m2
Northern Hawkes Bay. New Zealand Historic Data
Compliments of Weather Underground - 2 mb